Time;durP1;ratioP1;P1;durP2;ratioP2;P2;SDS_P1;SDS_P2;PMS_P1;PMS_P2;Temp;Humidity;BMP_temperature;BMP_pressure;BME280_temperature;BME280_humidity;BME280_pressure;Samples;Min_cycle;Max_cycle;Signal;HPM_P1;HPM_P2
2022/10/24 00:00:47;;;;;;;9.80;3.42;;;15.30;99.90;;;;;;5111726;28;20156;-54
2022/10/24 00:03:13;;;;;;;8.30;3.40;;;15.20;99.90;;;;;;5111121;28;20161;-53
2022/10/24 00:05:44;;;;;;;13.27;3.85;;;15.30;99.90;;;;;;5111632;28;20164;-53
2022/10/24 00:08:10;;;;;;;8.73;3.55;;;15.20;99.90;;;;;;5113650;28;20233;-54
2022/10/24 00:10:36;;;;;;;6.78;3.05;;;15.20;99.90;;;;;;5115602;28;20161;-54
2022/10/24 00:13:02;;;;;;;8.32;3.00;;;15.10;99.90;;;;;;5115262;28;20520;-54
2022/10/24 00:15:28;;;;;;;12.23;2.80;;;15.10;99.90;;;;;;5115093;28;20192;-53
2022/10/24 00:17:53;;;;;;;9.75;3.15;;;15.00;99.90;;;;;;5115138;28;20165;-54
2022/10/24 00:20:19;;;;;;;5.40;2.67;;;15.10;99.90;;;;;;5115371;28;20255;-54
2022/10/24 00:22:44;;;;;;;8.35;3.35;;;15.20;99.90;;;;;;5115059;28;20171;-53
2022/10/24 00:25:10;;;;;;;10.15;2.90;;;15.20;99.90;;;;;;5115036;28;20180;-53
2022/10/24 00:27:36;;;;;;;7.20;2.38;;;15.30;99.90;;;;;;5115265;28;20693;-54
2022/10/24 00:30:04;;;;;;;11.30;3.83;;;15.40;99.90;;;;;;5114915;28;20169;-54
2022/10/24 00:32:30;;;;;;;9.57;2.92;;;15.30;99.90;;;;;;5114913;28;20169;-54
2022/10/24 00:34:55;;;;;;;8.93;2.33;;;15.30;99.90;;;;;;5114820;28;20564;-53
2022/10/24 00:37:21;;;;;;;5.60;2.75;;;15.40;99.90;;;;;;5114842;28;20203;-54
2022/10/24 00:39:46;;;;;;;6.95;2.83;;;15.40;99.90;;;;;;5114752;28;20179;-52
2022/10/24 00:42:12;;;;;;;7.40;2.97;;;15.30;99.90;;;;;;5114744;28;20157;-52
2022/10/24 00:44:39;;;;;;;4.82;2.40;;;15.40;99.90;;;;;;5114866;28;20176;-52
2022/10/24 00:47:18;;;;;;;6.18;2.35;;;15.40;99.90;;;;;;5114736;28;20203;-52
2022/10/24 00:50:00;;;;;;;7.35;3.30;;;15.40;99.90;;;;;;5114535;28;20173;-52
2022/10/24 00:52:37;;;;;;;9.07;3.17;;;15.40;99.90;;;;;;5114446;28;20616;-52
2022/10/24 00:55:04;;;;;;;6.50;2.72;;;15.40;99.90;;;;;;5114390;28;20172;-52
2022/10/24 00:57:42;;;;;;;8.95;2.90;;;15.40;99.90;;;;;;5114225;28;20192;-52
2022/10/24 01:00:12;;;;;;;7.32;2.85;;;15.40;99.90;;;;;;5096434;28;20203;-52
2022/10/24 01:02:38;;;;;;;11.98;3.10;;;15.40;99.90;;;;;;5114199;28;20260;-52
2022/10/24 01:05:07;;;;;;;11.38;4.07;;;15.40;99.90;;;;;;5114563;28;20168;-53
2022/10/24 01:07:35;;;;;;;5.57;2.65;;;15.40;99.90;;;;;;5114387;28;20196;-52
2022/10/24 01:10:15;;;;;;;8.27;2.85;;;15.40;99.90;;;;;;5114131;28;20643;-53
2022/10/24 01:13:32;;;;;;;6.05;2.28;;;15.40;99.90;;;;;;5114025;28;20165;-53
2022/10/24 01:16:12;;;;;;;8.82;2.58;;;15.30;99.90;;;;;;5068788;28;20177;-52
2022/10/24 01:18:53;;;;;;;5.18;2.67;;;15.30;99.90;;;;;;5113878;28;20639;-53
2022/10/24 01:21:34;;;;;;;8.85;2.58;;;15.20;99.90;;;;;;5114247;28;20179;-52
2022/10/24 01:24:34;;;;;;;10.88;2.65;;;15.20;99.90;;;;;;5113838;28;20171;-52
2022/10/24 01:27:32;;;;;;;5.75;2.30;;;15.30;99.90;;;;;;5113706;28;20161;-53
2022/10/24 01:30:03;;;;;;;5.65;2.70;;;15.20;99.90;;;;;;5113315;28;20204;-52
2022/10/24 01:32:40;;;;;;;7.28;2.42;;;15.30;99.90;;;;;;5113644;28;20593;-54
2022/10/24 01:35:12;;;;;;;5.20;2.03;;;15.30;99.90;;;;;;5114060;28;20169;-53
2022/10/24 01:37:46;;;;;;;4.55;2.22;;;15.30;99.90;;;;;;5113558;28;20157;-53
2022/10/24 01:40:20;;;;;;;4.57;2.50;;;15.30;99.90;;;;;;5113595;28;20163;-52
2022/10/24 01:42:48;;;;;;;7.55;2.33;;;15.30;99.90;;;;;;5113561;28;20156;-52
2022/10/24 01:45:19;;;;;;;9.25;2.85;;;15.20;99.90;;;;;;5113451;28;20161;-53
2022/10/24 01:47:49;;;;;;;11.65;2.55;;;15.30;99.90;;;;;;5113280;28;20196;-54
2022/10/24 01:50:17;;;;;;;7.80;3.13;;;15.50;99.90;;;;;;5113325;28;20189;-53
2022/10/24 01:52:45;;;;;;;5.22;2.35;;;15.40;99.90;;;;;;5113244;28;20160;-53
2022/10/24 01:55:11;;;;;;;7.95;2.63;;;15.40;99.90;;;;;;5113279;28;20175;-54
2022/10/24 01:57:38;;;;;;;4.63;2.25;;;15.40;99.90;;;;;;5113409;28;20170;-53
2022/10/24 02:00:06;;;;;;;8.68;2.47;;;13.50;99.90;;;;;;5113756;28;20200;-54
2022/10/24 02:02:42;;;;;;;10.10;2.50;;;15.30;99.90;;;;;;5113653;28;20165;-53
2022/10/24 02:05:14;;;;;;;6.38;2.22;;;15.30;99.90;;;;;;5113144;28;20678;-53
2022/10/24 02:07:43;;;;;;;6.53;2.92;;;15.40;99.90;;;;;;5112873;28;20204;-52
2022/10/24 02:10:18;;;;;;;7.53;2.85;;;15.40;99.90;;;;;;5113100;28;20161;-52
2022/10/24 02:12:48;;;;;;;5.30;2.45;;;15.30;99.90;;;;;;5112968;28;20160;-52
2022/10/24 02:15:21;;;;;;;8.07;2.30;;;15.40;99.90;;;;;;5113178;28;20570;-53
2022/10/24 02:17:47;;;;;;;4.90;2.50;;;15.40;99.90;;;;;;5112868;28;20252;-53
2022/10/24 02:20:13;;;;;;;6.20;2.72;;;15.40;99.90;;;;;;5112817;28;20193;-54
2022/10/24 02:22:53;;;;;;;3.15;2.05;;;15.40;99.90;;;;;;5112771;28;20177;-54
2022/10/24 02:25:26;;;;;;;6.22;2.30;;;15.50;99.90;;;;;;5112697;28;20222;-53
2022/10/24 02:27:59;;;;;;;5.38;2.00;;;15.50;99.90;;;;;;5112592;28;20206;-53
2022/10/24 02:30:27;;;;;;;3.67;2.20;;;15.50;99.90;;;;;;5112113;28;20180;-52
2022/10/24 02:32:56;;;;;;;5.50;2.50;;;15.50;99.90;;;;;;5112611;28;20554;-53
2022/10/24 02:35:33;;;;;;;3.78;2.50;;;15.50;99.90;;;;;;5112502;28;20156;-53
2022/10/24 02:38:24;;;;;;;6.32;2.33;;;15.50;99.90;;;;;;5112558;28;20195;-53
2022/10/24 02:40:51;;;;;;;8.50;2.40;;;15.50;99.90;;;;;;5103327;28;20536;-52
2022/10/24 02:43:20;;;;;;;7.57;2.15;;;15.60;99.90;;;;;;5112785;28;20520;-54
2022/10/24 02:45:46;;;;;;;8.70;2.72;;;15.40;99.90;;;;;;5112664;28;20192;-52
2022/10/24 02:48:15;;;;;;;6.43;1.98;;;15.40;99.90;;;;;;5112317;28;20211;-53
2022/10/24 02:50:42;;;;;;;3.78;1.98;;;15.40;99.90;;;;;;5112289;28;20196;-53
2022/10/24 02:53:13;;;;;;;7.80;2.38;;;15.40;99.90;;;;;;5112230;28;20175;-52
2022/10/24 02:55:39;;;;;;;5.63;2.17;;;15.30;99.90;;;;;;5112490;28;20173;-53
2022/10/24 02:58:04;;;;;;;9.25;2.22;;;15.30;99.90;;;;;;5112414;28;20269;-54
2022/10/24 03:00:30;;;;;;;5.38;1.95;;;15.30;99.90;;;;;;5112257;28;20168;-53
2022/10/24 03:02:56;;;;;;;7.45;2.28;;;15.30;99.90;;;;;;5112311;28;20237;-52
2022/10/24 03:05:21;;;;;;;5.95;2.92;;;15.30;99.90;;;;;;5112419;28;20628;-52
2022/10/24 03:07:47;;;;;;;6.75;2.85;;;15.30;99.90;;;;;;5108895;28;20213;-52
2022/10/24 03:10:13;;;;;;;5.55;2.55;;;15.30;99.90;;;;;;5092026;28;20223;-53
2022/10/24 03:12:38;;;;;;;5.85;2.70;;;15.30;99.90;;;;;;5091859;28;20524;-53
2022/10/24 03:15:04;;;;;;;9.23;2.95;;;15.30;99.90;;;;;;5092152;28;20170;-52
2022/10/24 03:17:30;;;;;;;5.15;1.55;;;15.20;99.90;;;;;;5091688;28;20165;-52
2022/10/24 03:19:55;;;;;;;6.47;3.00;;;15.20;99.90;;;;;;5091785;28;20165;-52
2022/10/24 03:22:21;;;;;;;6.68;2.28;;;15.20;99.90;;;;;;5091747;28;20226;-52
2022/10/24 03:24:46;;;;;;;3.70;2.00;;;15.20;99.90;;;;;;5091771;28;20173;-52
2022/10/24 03:27:12;;;;;;;6.72;2.13;;;15.30;99.90;;;;;;5091622;28;20232;-52
2022/10/24 03:29:37;;;;;;;6.75;3.00;;;15.20;99.90;;;;;;5091552;28;20259;-52
2022/10/24 03:32:04;;;;;;;4.43;2.05;;;15.30;99.90;;;;;;5092026;28;20169;-52
2022/10/24 03:34:30;;;;;;;10.05;2.78;;;15.30;99.90;;;;;;5091810;28;20177;-52
2022/10/24 03:36:55;;;;;;;7.38;2.47;;;15.30;99.90;;;;;;5091576;28;20165;-53
2022/10/24 03:39:21;;;;;;;8.23;2.42;;;15.20;99.90;;;;;;5091766;28;20227;-52
2022/10/24 03:41:46;;;;;;;6.82;2.83;;;15.30;99.90;;;;;;5091489;28;20161;-53
2022/10/24 03:44:12;;;;;;;5.13;2.90;;;15.20;99.90;;;;;;5095298;28;20563;-52
2022/10/24 03:46:37;;;;;;;8.48;2.53;;;15.20;99.90;;;;;;5095292;28;20166;-53
2022/10/24 03:49:03;;;;;;;8.88;2.85;;;15.20;99.90;;;;;;5095679;28;20337;-53
2022/10/24 03:51:29;;;;;;;6.97;2.33;;;15.30;99.90;;;;;;5095242;28;20169;-53
2022/10/24 03:53:54;;;;;;;5.47;2.92;;;15.30;99.90;;;;;;5095294;28;20169;-52
2022/10/24 03:56:20;;;;;;;4.82;2.20;;;15.40;99.90;;;;;;5095265;28;20162;-53
2022/10/24 03:58:45;;;;;;;10.02;2.97;;;15.40;99.90;;;;;;5095092;28;20224;-53
2022/10/24 04:01:16;;;;;;;9.07;2.38;;;15.30;99.90;;;;;;5095060;28;20574;-53
2022/10/24 04:03:43;;;;;;;5.32;2.10;;;15.40;99.90;;;;;;5095284;28;20177;-53
2022/10/24 04:06:08;;;;;;;3.20;1.88;;;15.20;99.90;;;;;;5095019;28;20712;-54
2022/10/24 04:08:34;;;;;;;7.32;2.38;;;15.10;99.90;;;;;;5095228;28;20288;-55
2022/10/24 04:10:59;;;;;;;8.45;2.40;;;15.20;99.90;;;;;;5094779;28;20529;-54
2022/10/24 04:13:25;;;;;;;10.55;2.67;;;15.40;99.90;;;;;;5094861;28;20174;-54
2022/10/24 04:15:51;;;;;;;9.07;2.70;;;15.60;99.90;;;;;;5094877;28;20165;-54
2022/10/24 04:18:16;;;;;;;5.25;2.40;;;15.70;99.90;;;;;;5094719;28;20166;-54
2022/10/24 04:20:42;;;;;;;8.02;2.38;;;15.70;99.90;;;;;;5094956;28;20169;-53
2022/10/24 04:23:07;;;;;;;4.93;1.92;;;15.50;99.90;;;;;;5094644;28;20180;-54
2022/10/24 04:25:33;;;;;;;4.70;1.70;;;15.30;99.90;;;;;;5095043;28;20169;-54
2022/10/24 04:27:58;;;;;;;7.47;1.70;;;15.30;99.90;;;;;;5094480;28;20691;-52
2022/10/24 04:30:25;;;;;;;4.43;1.88;;;15.20;99.90;;;;;;5094506;28;20177;-55
2022/10/24 04:32:50;;;;;;;2.55;1.38;;;15.20;99.90;;;;;;5094397;28;20204;-54
2022/10/24 04:35:16;;;;;;;3.40;1.80;;;15.20;99.90;;;;;;5094450;28;20205;-53
2022/10/24 04:37:42;;;;;;;3.88;1.90;;;15.10;99.90;;;;;;5094409;28;20194;-53
2022/10/24 04:40:08;;;;;;;4.57;1.70;;;15.10;99.90;;;;;;5094251;28;20170;-54
2022/10/24 04:42:34;;;;;;;3.80;2.30;;;15.00;99.90;;;;;;5094546;28;20174;-53
2022/10/24 04:44:59;;;;;;;5.32;1.63;;;15.00;99.90;;;;;;5094239;28;20177;-53
2022/10/24 04:47:25;;;;;;;4.70;1.85;;;15.00;99.90;;;;;;5093763;28;20236;-52
2022/10/24 04:49:50;;;;;;;3.05;1.50;;;15.00;99.90;;;;;;5094096;28;20176;-52
2022/10/24 04:52:16;;;;;;;3.80;1.63;;;14.90;99.90;;;;;;5094115;28;20670;-53
2022/10/24 04:54:41;;;;;;;8.68;2.00;;;14.90;99.90;;;;;;5093664;28;20694;-53
2022/10/24 04:57:07;;;;;;;7.47;1.92;;;14.90;99.90;;;;;;5093997;28;20205;-53
2022/10/24 04:59:32;;;;;;;4.80;2.35;;;14.90;99.90;;;;;;5093862;28;20796;-53
2022/10/24 05:01:58;;;;;;;5.53;2.45;;;14.80;99.90;;;;;;5093703;28;20222;-52
2022/10/24 05:04:23;;;;;;;5.60;1.70;;;14.80;99.90;;;;;;5093919;28;20180;-53
2022/10/24 05:06:49;;;;;;;4.82;2.60;;;14.80;99.90;;;;;;5093755;28;20158;-52
2022/10/24 05:09:14;;;;;;;5.47;1.63;;;14.80;99.90;;;;;;5093671;28;20632;-53
2022/10/24 05:11:40;;;;;;;5.50;1.98;;;14.80;99.90;;;;;;5093712;28;20629;-53
2022/10/24 05:14:06;;;;;;;3.97;1.60;;;14.90;99.90;;;;;;5094047;28;20686;-52
2022/10/24 05:16:32;;;;;;;4.68;2.45;;;14.50;99.90;;;;;;5093967;28;20574;-53
2022/10/24 05:18:57;;;;;;;7.22;2.95;;;14.80;99.90;;;;;;5093573;28;20609;-53
2022/10/24 05:21:23;;;;;;;7.25;2.25;;;17.20;99.90;;;;;;5075503;28;20173;-52
2022/10/24 05:23:48;;;;;;;5.63;1.80;;;14.80;99.90;;;;;;5093502;28;20174;-53
2022/10/24 05:26:14;;;;;;;10.07;2.03;;;14.70;99.90;;;;;;5093511;28;20255;-52
2022/10/24 05:28:39;;;;;;;4.53;2.33;;;14.80;99.90;;;;;;5093227;28;20208;-53
2022/10/24 05:31:05;;;;;;;8.43;2.30;;;14.80;99.90;;;;;;5093707;28;20169;-52
2022/10/24 05:33:30;;;;;;;7.63;2.00;;;14.70;99.90;;;;;;5093309;28;20165;-52
2022/10/24 05:35:56;;;;;;;4.38;1.88;;;14.60;99.90;;;;;;5093120;28;20175;-53
2022/10/24 05:38:22;;;;;;;8.65;1.90;;;14.60;99.90;;;;;;5093148;28;20215;-53
2022/10/24 05:40:48;;;;;;;7.82;1.92;;;14.60;99.90;;;;;;5092971;28;20554;-53
2022/10/24 05:43:14;;;;;;;4.15;2.22;;;14.60;99.90;;;;;;5093185;28;20532;-53
2022/10/24 05:45:40;;;;;;;12.27;2.20;;;14.50;99.90;;;;;;5092985;28;20169;-52
2022/10/24 05:48:06;;;;;;;10.85;2.05;;;14.40;99.90;;;;;;5093084;28;20215;-52
2022/10/24 05:50:32;;;;;;;12.65;2.67;;;14.50;99.90;;;;;;5093094;28;20197;-52
2022/10/24 05:52:57;;;;;;;7.30;1.80;;;14.50;99.90;;;;;;5093082;28;20169;-53
2022/10/24 05:55:23;;;;;;;11.63;2.08;;;14.60;99.90;;;;;;5092749;28;20213;-52
2022/10/24 05:57:48;;;;;;;9.75;2.20;;;14.60;99.90;;;;;;5092620;28;20676;-52
2022/10/24 06:00:15;;;;;;;4.97;2.40;;;14.50;99.90;;;;;;5092780;28;20520;-52
2022/10/24 06:02:41;;;;;;;4.45;1.60;;;14.40;99.90;;;;;;5092662;28;20162;-52
2022/10/24 06:05:08;;;;;;;9.80;4.40;;;14.40;99.90;;;;;;5091784;28;20161;-52
2022/10/24 06:07:34;;;;;;;10.52;2.65;;;14.40;99.90;;;;;;5092774;28;20258;-52
2022/10/24 06:10:01;;;;;;;9.30;2.03;;;14.40;99.90;;;;;;5092476;28;20165;-52
2022/10/24 06:12:27;;;;;;;6.32;2.97;;;14.40;99.90;;;;;;5092777;28;20172;-52
2022/10/24 06:14:57;;;;;;;4.13;1.58;;;14.40;99.90;;;;;;5092720;28;20169;-54
2022/10/24 06:17:22;;;;;;;9.90;4.10;;;14.40;99.90;;;;;;5092417;28;20621;-52
2022/10/24 06:19:49;;;;;;;4.45;1.70;;;14.40;99.90;;;;;;5092422;28;20174;-52
2022/10/24 06:22:15;;;;;;;9.65;1.90;;;14.40;99.90;;;;;;5092520;28;20173;-52
2022/10/24 06:24:41;;;;;;;4.85;1.50;;;14.40;99.90;;;;;;5092241;28;20613;-52
2022/10/24 06:27:06;;;;;;;5.18;2.20;;;14.40;99.90;;;;;;5092147;28;20193;-53
2022/10/24 06:29:32;;;;;;;12.98;3.05;;;14.40;99.90;;;;;;5092596;28;20165;-52
2022/10/24 06:31:58;;;;;;;5.03;2.13;;;14.40;99.90;;;;;;5092481;28;20166;-52
2022/10/24 06:34:24;;;;;;;2.83;1.33;;;14.40;99.90;;;;;;5092366;28;20172;-52
2022/10/24 06:36:49;;;;;;;5.70;1.52;;;14.40;99.90;;;;;;5092224;28;20617;-53
2022/10/24 06:39:15;;;;;;;6.82;1.90;;;14.40;99.90;;;;;;5073962;28;20219;-52
2022/10/24 06:41:40;;;;;;;5.50;2.05;;;14.40;99.90;;;;;;5092123;28;20251;-52
2022/10/24 06:44:06;;;;;;;4.78;2.03;;;14.40;99.90;;;;;;5092047;28;20165;-53
2022/10/24 06:46:32;;;;;;;2.33;1.25;;;14.40;99.90;;;;;;5092326;28;20172;-53
2022/10/24 06:48:57;;;;;;;3.17;1.55;;;14.50;99.90;;;;;;5092174;28;20244;-53
2022/10/24 06:51:23;;;;;;;3.17;1.30;;;14.50;99.90;;;;;;5091885;28;20270;-54
2022/10/24 06:53:49;;;;;;;5.57;1.40;;;14.60;99.90;;;;;;5091758;28;20169;-53
2022/10/24 06:56:16;;;;;;;3.22;1.20;;;14.60;99.90;;;;;;5091906;28;20162;-52
2022/10/24 06:58:42;;;;;;;3.97;1.40;;;14.60;99.90;;;;;;5091743;28;20319;-52
2022/10/24 07:01:11;;;;;;;2.92;1.42;;;14.80;99.90;;;;;;5091850;28;20593;-52
2022/10/24 07:03:37;;;;;;;3.95;2.15;;;14.80;99.90;;;;;;5091869;28;20169;-52
2022/10/24 07:06:13;;;;;;;9.15;3.42;;;14.90;99.90;;;;;;5092228;28;20161;-53
2022/10/24 07:08:39;;;;;;;11.43;3.88;;;14.90;99.90;;;;;;5091669;28;20713;-52
2022/10/24 07:11:05;;;;;;;10.38;4.63;;;15.00;99.90;;;;;;5092005;28;20167;-52
2022/10/24 07:13:30;;;;;;;11.40;4.40;;;15.10;99.90;;;;;;5091666;28;20166;-52
2022/10/24 07:15:56;;;;;;;6.40;3.08;;;15.20;99.90;;;;;;5091848;28;20553;-52
2022/10/24 07:18:21;;;;;;;6.18;3.40;;;15.50;99.90;;;;;;5095860;28;20172;-52
2022/10/24 07:20:47;;;;;;;8.57;2.60;;;15.60;99.90;;;;;;5095808;28;20617;-52
2022/10/24 07:23:13;;;;;;;10.32;2.53;;;15.70;99.90;;;;;;5095766;28;20201;-52
2022/10/24 07:25:40;;;;;;;4.13;1.88;;;15.80;99.90;;;;;;5095690;28;20244;-52
2022/10/24 07:28:07;;;;;;;7.35;2.50;;;15.80;99.90;;;;;;5095929;28;20212;-53
2022/10/24 07:30:32;;;;;;;4.07;1.75;;;15.90;99.90;;;;;;5095930;28;20166;-52
2022/10/24 07:32:58;;;;;;;11.75;1.83;;;15.90;99.90;;;;;;5095548;28;20203;-52
2022/10/24 07:35:23;;;;;;;8.95;1.92;;;16.00;99.90;;;;;;5095584;28;20172;-52
2022/10/24 07:37:49;;;;;;;7.85;2.30;;;16.00;99.90;;;;;;5095431;28;20162;-52
2022/10/24 07:40:15;;;;;;;5.45;2.50;;;16.00;99.90;;;;;;5095367;28;20181;-52
2022/10/24 07:42:41;;;;;;;7.35;2.25;;;16.10;99.90;;;;;;5095365;28;20176;-52
2022/10/24 07:45:07;;;;;;;6.35;2.22;;;16.00;99.90;;;;;;5095244;28;20165;-52
2022/10/24 07:47:33;;;;;;;5.40;2.00;;;16.00;99.90;;;;;;5094206;28;20204;-55
2022/10/24 07:49:58;;;;;;;3.22;1.30;;;16.00;99.90;;;;;;5093944;28;20181;-50
2022/10/24 07:52:24;;;;;;;4.85;1.50;;;16.10;99.90;;;;;;5093632;28;20177;-52
2022/10/24 07:54:53;;;;;;;2.30;1.10;;;16.10;99.90;;;;;;5093734;28;20169;-52
2022/10/24 07:57:19;;;;;;;8.30;1.60;;;16.10;99.90;;;;;;5093655;28;20161;-48
2022/10/24 07:59:44;;;;;;;7.65;1.55;;;16.20;99.90;;;;;;5102698;28;20230;-50
2022/10/24 08:02:12;;;;;;;5.88;1.70;;;16.10;99.90;;;;;;5113917;28;20164;-52
2022/10/24 08:04:37;;;;;;;4.70;1.70;;;16.30;99.90;;;;;;5113733;28;20172;-52
2022/10/24 08:07:03;;;;;;;5.40;2.03;;;16.40;99.90;;;;;;5114204;28;20172;-50
2022/10/24 08:09:29;;;;;;;3.15;1.60;;;16.60;99.90;;;;;;5113849;28;20247;-52
2022/10/24 08:11:54;;;;;;;4.72;1.30;;;16.70;99.90;;;;;;5113750;28;20164;-48
2022/10/24 08:14:20;;;;;;;5.85;1.65;;;16.70;99.90;;;;;;5113729;28;20165;-61
2022/10/24 08:16:45;;;;;;;5.35;1.83;;;16.70;99.90;;;;;;5113884;28;20175;-49
2022/10/24 08:19:11;;;;;;;5.32;1.60;;;16.80;99.90;;;;;;5113673;28;20573;-48
2022/10/24 08:21:37;;;;;;;4.93;1.40;;;16.90;99.90;;;;;;5113935;28;20206;-47
2022/10/24 08:24:03;;;;;;;8.80;2.08;;;16.90;99.90;;;;;;5113897;28;20589;-48
2022/10/24 08:26:29;;;;;;;13.15;2.60;;;17.10;99.90;;;;;;5113428;28;20243;-51
2022/10/24 08:28:54;;;;;;;3.67;1.38;;;17.10;99.90;;;;;;5112597;28;20212;-51
2022/10/24 08:31:22;;;;;;;5.85;1.50;;;17.00;99.90;;;;;;5113370;28;20227;-54
2022/10/24 08:33:51;;;;;;;5.40;1.45;;;17.00;99.90;;;;;;5111212;28;20180;-49
2022/10/24 08:36:31;;;;;;;4.90;1.52;;;17.00;99.90;;;;;;5113611;28;20210;-49
2022/10/24 08:38:57;;;;;;;6.85;1.60;;;17.10;99.90;;;;;;5113172;28;20582;-52
2022/10/24 08:41:35;;;;;;;4.43;1.20;;;17.00;99.90;;;;;;5113217;28;20240;-52
2022/10/24 08:44:06;;;;;;;8.32;1.50;;;17.10;99.90;;;;;;5113405;28;20627;-52
2022/10/24 08:46:43;;;;;;;6.90;1.75;;;17.10;99.90;;;;;;5113337;28;20169;-52
2022/10/24 08:49:25;;;;;;;6.93;1.60;;;17.10;99.90;;;;;;5113251;28;20620;-52
2022/10/24 08:52:02;;;;;;;3.88;1.58;;;17.20;99.90;;;;;;5112978;28;20208;-52
2022/10/24 08:54:35;;;;;;;5.30;1.85;;;17.20;99.90;;;;;;5112895;28;20180;-52
2022/10/24 08:57:01;;;;;;;5.38;1.50;;;17.20;99.90;;;;;;5113652;28;20218;-52
2022/10/24 08:59:30;;;;;;;4.45;1.60;;;17.20;99.90;;;;;;5112726;28;20224;-52
2022/10/24 09:02:04;;;;;;;5.68;2.20;;;17.30;99.90;;;;;;5112786;28;20168;-52
2022/10/24 09:04:39;;;;;;;4.43;1.15;;;17.50;99.90;;;;;;5113187;28;20163;-52
2022/10/24 09:07:06;;;;;;;4.53;1.50;;;17.50;99.90;;;;;;5113155;28;20163;-52
2022/10/24 09:09:45;;;;;;;3.20;1.75;;;17.50;99.90;;;;;;5113058;28;20180;-52
2022/10/24 09:12:14;;;;;;;6.10;2.03;;;17.40;99.90;;;;;;5112794;28;20168;-52
2022/10/24 09:14:42;;;;;;;6.55;2.03;;;17.40;99.90;;;;;;5112607;28;20176;-52
2022/10/24 09:17:18;;;;;;;8.10;1.92;;;17.40;99.90;;;;;;5112492;28;20163;-52
2022/10/24 09:19:58;;;;;;;4.13;1.13;;;17.40;99.90;;;;;;5112558;28;20164;-52
2022/10/24 09:22:27;;;;;;;3.33;1.40;;;17.40;99.90;;;;;;5112648;28;20180;-52
2022/10/24 09:25:06;;;;;;;6.50;1.65;;;17.50;99.90;;;;;;5112449;28;20696;-51
2022/10/24 09:27:35;;;;;;;9.20;1.58;;;17.50;99.90;;;;;;5112701;28;20214;-55
2022/10/24 09:30:01;;;;;;;3.80;1.50;;;17.50;99.90;;;;;;5112569;28;20223;-52
2022/10/24 09:32:31;;;;;;;6.75;1.63;;;17.40;99.90;;;;;;5093984;28;20632;-47
2022/10/24 09:35:00;;;;;;;7.45;1.88;;;17.40;99.90;;;;;;5112177;28;20168;-49
2022/10/24 09:37:29;;;;;;;6.55;2.03;;;17.40;99.90;;;;;;5112075;28;20168;-48
2022/10/24 09:40:23;;;;;;;5.05;2.08;;;17.40;99.90;;;;;;5110990;28;20264;-51
2022/10/24 09:43:15;;;;;;;6.07;1.73;;;17.40;99.90;;;;;;5112080;28;20161;-52
2022/10/24 09:45:48;;;;;;;4.15;1.38;;;17.30;99.90;;;;;;5112271;28;20491;-47
2022/10/24 09:48:34;;;;;;;4.68;1.60;;;17.30;99.90;;;;;;5111841;28;20253;-49
2022/10/24 09:51:01;;;;;;;8.93;2.28;;;17.30;99.90;;;;;;5112367;28;20192;-50
2022/10/24 09:53:39;;;;;;;9.27;2.42;;;17.30;99.90;;;;;;5111793;28;20574;-52
2022/10/24 09:56:13;;;;;;;6.03;1.50;;;17.30;99.90;;;;;;5111977;28;20228;-55
2022/10/24 09:58:40;;;;;;;4.10;1.58;;;17.40;99.90;;;;;;5111632;28;20251;-47
2022/10/24 10:01:21;;;;;;;6.38;1.42;;;17.40;99.90;;;;;;5111934;28;20239;-47
2022/10/24 10:04:02;;;;;;;6.03;1.60;;;17.40;99.90;;;;;;5111852;28;20180;-50
2022/10/24 10:06:28;;;;;;;8.13;1.70;;;17.40;99.90;;;;;;5111571;28;20209;-49
2022/10/24 10:08:55;;;;;;;5.90;1.63;;;17.40;99.90;;;;;;5111468;28;20571;-52
2022/10/24 10:11:29;;;;;;;8.93;1.85;;;17.40;99.90;;;;;;5111521;28;20191;-52
2022/10/24 10:13:58;;;;;;;10.48;1.95;;;17.40;99.90;;;;;;5111570;28;20173;-50
2022/10/24 10:16:26;;;;;;;10.90;2.08;;;17.40;99.90;;;;;;5111220;28;20231;-51
2022/10/24 10:19:05;;;;;;;10.52;2.30;;;17.40;99.90;;;;;;5111136;28;20259;-52
2022/10/24 10:21:52;;;;;;;9.45;1.70;;;17.40;99.90;;;;;;5111676;28;20654;-50
2022/10/24 10:24:39;;;;;;;8.40;2.22;;;17.40;99.90;;;;;;5111551;28;20168;-51
2022/10/24 10:27:29;;;;;;;8.20;1.50;;;17.40;99.90;;;;;;5111451;28;20174;-51
2022/10/24 10:30:16;;;;;;;4.75;1.75;;;17.40;99.90;;;;;;5111050;28;20183;-51
2022/10/24 10:33:15;;;;;;;7.18;2.25;;;17.40;99.90;;;;;;5111394;28;20168;-51
2022/10/24 10:35:52;;;;;;;10.07;1.55;;;17.40;99.90;;;;;;5110938;28;20180;-50
2022/10/24 10:38:36;;;;;;;4.60;1.70;;;17.50;99.90;;;;;;5111033;28;20183;-50
2022/10/24 10:41:13;;;;;;;10.27;2.47;;;17.60;99.90;;;;;;5111387;28;20691;-50
2022/10/24 10:43:51;;;;;;;9.30;2.08;;;17.60;99.90;;;;;;5111032;28;20192;-49
2022/10/24 10:46:28;;;;;;;6.03;1.75;;;17.60;99.90;;;;;;5110946;28;20683;-49
2022/10/24 10:49:11;;;;;;;2.85;1.20;;;17.70;99.90;;;;;;5111161;28;20243;-49
2022/10/24 10:51:37;;;;;;;3.10;1.50;;;17.70;99.90;;;;;;5110471;28;20213;-49
2022/10/24 10:54:15;;;;;;;8.40;1.80;;;17.80;99.90;;;;;;5111032;28;20176;-48
2022/10/24 10:56:52;;;;;;;3.92;2.08;;;17.90;99.90;;;;;;5110278;28;20249;-49
2022/10/24 10:59:42;;;;;;;5.28;2.42;;;18.00;99.90;;;;;;5110608;28;20216;-49
2022/10/24 11:02:52;;;;;;;8.93;1.95;;;17.90;99.90;;;;;;5110449;28;20214;-49
2022/10/24 11:05:23;;;;;;;6.20;1.50;;;18.00;99.90;;;;;;5110664;28;20172;-49
2022/10/24 11:08:14;;;;;;;6.40;1.73;;;18.00;99.90;;;;;;5092224;28;20682;-49
2022/10/24 11:10:53;;;;;;;6.70;1.77;;;18.00;99.90;;;;;;5110695;28;20165;-49
2022/10/24 11:13:26;;;;;;;5.78;1.95;;;18.10;99.90;;;;;;5110907;28;20200;-49
2022/10/24 11:15:57;;;;;;;5.53;1.70;;;18.10;99.90;;;;;;5110473;28;20209;-49
2022/10/24 11:18:31;;;;;;;5.40;1.95;;;18.10;99.90;;;;;;5092302;28;20176;-48
2022/10/24 11:21:11;;;;;;;9.63;1.92;;;18.10;99.90;;;;;;5110565;28;20251;-50
2022/10/24 11:23:54;;;;;;;6.13;1.55;;;18.10;99.90;;;;;;5110473;28;20199;-49
2022/10/24 11:26:31;;;;;;;6.07;1.60;;;18.10;99.90;;;;;;5110472;28;20781;-49
2022/10/24 11:29:22;;;;;;;8.57;2.03;;;18.00;99.90;;;;;;5110273;28;20261;-49
2022/10/24 11:32:12;;;;;;;11.98;2.10;;;18.20;99.90;;;;;;5109616;28;20632;-49
2022/10/24 11:34:49;;;;;;;4.88;1.10;;;18.00;99.90;;;;;;5110192;28;20169;-49
2022/10/24 11:37:23;;;;;;;10.18;2.15;;;18.00;99.90;;;;;;5109977;28;20531;-49
2022/10/24 11:40:06;;;;;;;5.32;1.60;;;18.00;99.90;;;;;;5110233;28;20165;-48
2022/10/24 11:42:41;;;;;;;6.95;1.60;;;17.90;99.90;;;;;;5110641;28;20651;-49
2022/10/24 11:45:11;;;;;;;3.45;1.33;;;17.90;99.90;;;;;;5110100;28;20165;-51
2022/10/24 11:47:40;;;;;;;5.13;1.55;;;17.90;99.90;;;;;;5102067;28;20196;-51
2022/10/24 11:50:16;;;;;;;5.28;1.40;;;17.90;99.90;;;;;;5100365;28;20165;-48
2022/10/24 11:52:47;;;;;;;6.15;1.60;;;17.90;99.90;;;;;;5106624;28;20258;-48
2022/10/24 11:55:19;;;;;;;6.93;1.95;;;16.20;99.90;;;;;;5110016;28;20173;-49
2022/10/24 11:57:49;;;;;;;5.57;1.45;;;17.80;99.90;;;;;;5109884;28;20652;-51
2022/10/24 12:00:22;;;;;;;3.08;1.73;;;17.80;99.90;;;;;;5110004;28;20177;-48
2022/10/24 12:03:14;;;;;;;6.35;1.70;;;17.80;99.90;;;;;;5110040;28;20173;-48
2022/10/24 12:06:07;;;;;;;7.78;1.73;;;17.70;99.90;;;;;;5102845;28;20249;-49
2022/10/24 12:08:54;;;;;;;4.70;1.58;;;17.70;99.90;;;;;;5110399;28;20261;-49
2022/10/24 12:11:22;;;;;;;6.20;2.13;;;17.70;99.90;;;;;;5092778;28;20521;-49
2022/10/24 12:14:33;;;;;;;6.68;1.90;;;17.70;99.90;;;;;;5093403;28;20684;-49
2022/10/24 12:17:20;;;;;;;6.60;1.50;;;17.80;99.90;;;;;;5076795;28;20209;-48
2022/10/24 12:19:46;;;;;;;7.63;1.92;;;17.90;99.90;;;;;;5092985;28;20173;-52
2022/10/24 12:22:24;;;;;;;7.35;1.95;;;17.90;99.90;;;;;;5074734;28;20206;-49
2022/10/24 12:25:21;;;;;;;9.73;2.05;;;18.00;99.90;;;;;;5092933;28;20231;-50
2022/10/24 12:27:53;;;;;;;4.80;1.65;;;18.00;99.90;;;;;;5081431;28;20205;-49
2022/10/24 12:30:20;;;;;;;6.90;1.58;;;18.10;99.90;;;;;;5092875;28;20162;-49
2022/10/24 12:32:50;;;;;;;5.97;1.70;;;18.00;99.90;;;;;;5092545;28;20252;-50
2022/10/24 12:35:32;;;;;;;8.23;2.13;;;18.10;99.90;;;;;;5092818;28;20178;-52
2022/10/24 12:37:59;;;;;;;4.97;1.92;;;18.20;99.90;;;;;;5092309;28;20165;-50
2022/10/24 12:40:44;;;;;;;8.52;2.22;;;18.10;99.90;;;;;;5092631;28;20621;-52
2022/10/24 12:43:28;;;;;;;5.10;1.35;;;18.10;99.90;;;;;;5092222;28;20648;-52
2022/10/24 12:45:55;;;;;;;8.63;1.73;;;18.10;99.90;;;;;;5092474;28;20328;-49
2022/10/24 12:48:31;;;;;;;4.82;1.10;;;18.10;99.90;;;;;;5092475;28;20212;-50
2022/10/24 12:51:24;;;;;;;3.88;1.50;;;18.10;99.90;;;;;;5092332;28;20214;-49
2022/10/24 12:54:00;;;;;;;5.38;1.67;;;18.10;99.90;;;;;;5091988;28;20169;-49
2022/10/24 12:56:29;;;;;;;5.45;2.10;;;18.10;99.90;;;;;;5092299;28;20179;-49
2022/10/24 12:59:21;;;;;;;12.48;2.00;;;18.10;99.90;;;;;;5092117;28;20221;-50
2022/10/24 13:02:10;;;;;;;3.88;1.52;;;18.10;99.90;;;;;;5091888;28;20243;-50
2022/10/24 13:05:20;;;;;;;8.68;1.90;;;18.10;99.90;;;;;;5091766;28;20173;-52